LFBHLFOP

Guest
Details From LFBH - La Rochelle Laleu
To LFOP - Rouen Vallee de la Seine
Flight Number -
Tags generated
Created
Modified
Stats Distance 220 nm / 408 km
Max Altitude 19,500 ft / 5,944 m
Waypoints 4
Social Downloads 0
Likes 0
Share VATSIM

Download

Looking for another format? Having issues loading an existing format? Contact us
Advertisement - Login to hide

Notes

Basic altitude profile: - Ascent Rate: 250ft/min - Ascent Speed: 250kts - Cruise Altitude: 35000ft - Cruise Speed: 250kts - Descent Rate: 150ft/min - Descent Speed: 200kts

Route

LFBH ANG UL976 OBATO LFOP

ID Type Via Altitude Latitude Longitude Leg Dist Tot Dist Heading (true) Name
O LFBH APT - 0 ft / 0 m 46.17924˚ -1.19641˚ - 0 nm - La Rochelle Laleu
ANG VOR - 4,900 ft / 1,494 m 47.53686˚ -0.85183˚ 82 nm 82 nm 10° / 10° ANGERS VOR
OBATO FIX UL976 (AWY-HI) 19,500 ft / 5,944 m 48.06694˚ -0.25000˚ 40 nm 122 nm 37° / 38° -
O LFOP APT - 0 ft / 0 m 49.38521˚ 1.17619˚ 97 nm 220 nm 35° / 36° Rouen Vallee de la Seine

Altitude Profile

Advertisement - Login to hide

Weather


0- 5 10 15 20 25 30 35+ Temperature / ° C

Clouds and Precipitation
Forecast for 2018-05-20 18:00 UTC. Updated 5 hours ago

Ground ~20,000 ft ~40,000 ft Winds

LFBH

Details ICAO LFBH (LRH)
Name La Rochelle Laleu
Region France
Timezone Europe/Paris (UTC+2.0)
Stats Elevation 74 ft / 23 m (AMSL)
Location 46.179245° -1.196410°
Runways 1
Magnetic Variation 0.246° W

METAR

LFBH 202200Z AUTO 05007KT CAVOK 15/09 Q1014 NOSIG

Decode

TAF

TAF LFBH 201700Z 2018/2118 05006KT CAVOK PROB30 2018/2019 31012KT BECMG 2105/2107 FEW045TCU TEMPO 2107/2118 -SHRA SCT040TCU PROB40 TEMPO 2114/2118 VRB15G25KT 3000 -TSRA BKN040TCU SCT050CB

Decode

Departure Runways

ID Width Length Bearing (true) Bearing (mag) Surface Threshold Offset Overrun Length
10 148 ft / 45 m 7,383 ft / 2,250 m 92.43° 92.68° Asphalt 1,033 ft / 315 m 0 ft / 0 m
28 148 ft / 45 m 7,383 ft / 2,250 m 272.45° 272.70° Asphalt 1,532 ft / 467 m 0 ft / 0 m

LFOP

Details ICAO LFOP (URO)
Name Rouen Vallee de la Seine
Region France
Timezone Europe/Paris (UTC+2.0)
Stats Elevation 512 ft / 156 m (AMSL)
Location 49.385211° 1.176192°
Runways 1
Magnetic Variation 0.243° E

METAR

LFOP 202200Z AUTO 02008KT 8000 NSC 14/10 Q1017

Decode

TAF

TAF TAF LFOP 202110Z 2021/2118 CNL

Decode

Destination Runways

ID Width Length Bearing (true) Bearing (mag) Surface Threshold Offset Overrun Length
04 148 ft / 45 m 5,577 ft / 1,700 m 41.28° 41.04° Asphalt 0 ft / 0 m 0 ft / 0 m
22 148 ft / 45 m 5,577 ft / 1,700 m 221.29° 221.05° Asphalt 0 ft / 0 m 0 ft / 0 m

Approach Navaids

Runway Type Ident Frequency Range Bearing (true) Bearing (mag) Slope Elevation
22 Localiser RN 110.50 MHz 18 nm / 33 km 221.27° 221.03° - 512 ft / 156 m (AMSL)
22 Glidescope RN 110.50 MHz 10 nm / 19 km 221.28° 221.04° 3.00° 512 ft / 156 m (AMSL)
22 DME RN 110.50 MHz 18 nm / 33 km - - - 571 ft / 174 m (AMSL)

Popular Alternatives